Time;durP1;ratioP1;P1;durP2;ratioP2;P2;SDS_P1;SDS_P2;PMS_P1;PMS_P2;Temp;Humidity;BMP_temperature;BMP_pressure;BME280_temperature;BME280_humidity;BME280_pressure;Samples;Min_cycle;Max_cycle;Signal;HPM_P1;HPM_P2
2023/05/15 00:02:24;;;;;;;40.40;29.38;;;12.80;99.90;;;;;;5033782;28;20091;-72
2023/05/15 00:04:50;;;;;;;37.78;27.98;;;12.70;99.90;;;;;;5045720;28;20124;-73
2023/05/15 00:07:15;;;;;;;39.17;27.52;;;12.70;99.90;;;;;;5038087;28;20045;-72
2023/05/15 00:09:41;;;;;;;40.60;29.20;;;12.70;99.90;;;;;;5053260;28;20037;-73
2023/05/15 00:12:07;;;;;;;41.75;28.20;;;12.80;99.90;;;;;;5051444;28;20044;-72
2023/05/15 00:14:32;;;;;;;40.13;28.23;;;12.70;99.90;;;;;;5052089;28;20041;-73
2023/05/15 00:16:58;;;;;;;40.83;29.48;;;12.70;99.90;;;;;;5039275;28;20472;-73
2023/05/15 00:19:23;;;;;;;41.63;29.95;;;12.60;99.90;;;;;;5051169;28;20037;-73
2023/05/15 00:21:49;;;;;;;39.13;26.85;;;12.50;99.90;;;;;;5050341;28;20048;-73
2023/05/15 00:24:15;;;;;;;41.95;28.00;;;12.50;99.90;;;;;;5033561;28;20040;-72
2023/05/15 00:26:40;;;;;;;38.05;27.48;;;12.50;99.90;;;;;;5033435;28;20489;-73
2023/05/15 00:29:06;;;;;;;41.58;29.30;;;12.60;99.90;;;;;;5048286;28;20036;-72
2023/05/15 00:31:32;;;;;;;40.33;29.42;;;12.60;99.90;;;;;;5033147;28;20045;-73
2023/05/15 00:33:57;;;;;;;38.85;29.17;;;12.50;99.90;;;;;;5032822;28;20051;-73
2023/05/15 00:36:24;;;;;;;36.70;27.45;;;12.60;99.90;;;;;;5033099;28;20120;-72
2023/05/15 00:38:50;;;;;;;36.58;26.95;;;12.60;99.90;;;;;;5041878;28;20037;-72
2023/05/15 00:41:16;;;;;;;36.85;27.52;;;12.60;99.90;;;;;;5053135;28;20041;-72
2023/05/15 00:43:43;;;;;;;35.13;25.65;;;12.60;99.90;;;;;;5052170;28;20087;-73
2023/05/15 00:46:11;;;;;;;36.38;26.88;;;12.60;99.90;;;;;;5052128;28;20393;-72
2023/05/15 00:48:37;;;;;;;38.00;26.90;;;12.50;99.90;;;;;;5051397;28;20048;-72
2023/05/15 00:51:03;;;;;;;39.92;27.58;;;12.30;99.90;;;;;;5040904;28;20057;-72
2023/05/15 00:53:28;;;;;;;36.35;26.55;;;12.40;99.90;;;;;;5038004;28;20505;-72
2023/05/15 00:55:57;;;;;;;37.30;27.50;;;12.40;99.90;;;;;;5045656;28;20045;-72
2023/05/15 00:58:25;;;;;;;42.80;29.25;;;12.40;99.90;;;;;;5048235;28;20037;-72
2023/05/15 01:00:52;;;;;;;37.40;26.67;;;12.40;99.90;;;;;;5038799;28;20112;-72
2023/05/15 01:03:18;;;;;;;42.70;28.65;;;12.40;99.90;;;;;;5052112;28;20400;-73
2023/05/15 01:05:43;;;;;;;41.08;28.92;;;12.20;99.90;;;;;;5052762;28;20033;-73
2023/05/15 01:08:36;;;;;;;37.55;27.73;;;12.20;99.90;;;;;;5051876;28;20069;-72
2023/05/15 01:11:04;;;;;;;39.00;28.70;;;12.20;99.90;;;;;;5052881;28;20059;-72
2023/05/15 01:13:30;;;;;;;37.10;26.65;;;12.30;99.90;;;;;;5050865;28;20072;-72
2023/05/15 01:15:56;;;;;;;39.97;28.75;;;12.30;99.90;;;;;;5031604;28;20080;-72
2023/05/15 01:18:22;;;;;;;38.58;27.67;;;12.40;99.90;;;;;;5036951;28;20036;-72
2023/05/15 01:21:09;;;;;;;42.53;30.55;;;12.30;99.90;;;;;;5053175;28;20039;-72
2023/05/15 01:24:02;;;;;;;43.75;30.55;;;12.20;99.90;;;;;;5050428;28;20553;-72
2023/05/15 01:26:46;;;;;;;41.80;30.67;;;12.00;99.90;;;;;;5055552;28;20485;-73
2023/05/15 01:29:31;;;;;;;41.50;28.80;;;12.00;99.90;;;;;;5056580;28;20508;-72
2023/05/15 01:32:03;;;;;;;40.22;27.65;;;11.90;99.90;;;;;;5055660;28;20047;-72
2023/05/15 01:34:50;;;;;;;39.05;28.17;;;11.70;99.90;;;;;;5055443;28;20032;-73
2023/05/15 01:37:20;;;;;;;38.20;27.05;;;11.80;99.90;;;;;;5056049;28;20037;-72
2023/05/15 01:39:52;;;;;;;40.67;28.40;;;11.90;99.90;;;;;;5055186;28;20061;-73
2023/05/15 01:42:18;;;;;;;39.58;28.05;;;11.90;99.90;;;;;;5054996;28;20123;-73
2023/05/15 01:44:50;;;;;;;41.75;28.27;;;11.90;99.90;;;;;;5055125;28;20028;-72
2023/05/15 01:47:20;;;;;;;40.55;27.45;;;12.00;99.90;;;;;;5056110;28;20118;-72
2023/05/15 01:49:48;;;;;;;44.75;29.95;;;12.00;99.90;;;;;;5050244;28;20101;-72
2023/05/15 01:52:21;;;;;;;41.03;28.35;;;11.90;99.90;;;;;;5055729;28;20417;-72
2023/05/15 01:54:48;;;;;;;40.53;27.75;;;11.90;99.90;;;;;;5053633;28;20044;-72
2023/05/15 01:57:15;;;;;;;41.17;28.70;;;11.90;99.90;;;;;;5052979;28;20497;-72
2023/05/15 01:59:41;;;;;;;42.72;29.23;;;11.80;99.90;;;;;;5051314;28;20041;-72
2023/05/15 02:02:09;;;;;;;42.53;29.00;;;11.80;99.90;;;;;;5041132;28;20409;-73
2023/05/15 02:04:38;;;;;;;38.13;26.05;;;11.80;99.90;;;;;;5055179;28;20444;-73
2023/05/15 02:07:04;;;;;;;38.10;27.92;;;11.80;99.90;;;;;;5055859;28;20437;-72
2023/05/15 02:09:31;;;;;;;40.50;28.90;;;11.80;99.90;;;;;;5051984;28;20065;-73
2023/05/15 02:11:58;;;;;;;39.45;27.55;;;11.90;99.90;;;;;;5055027;28;20041;-72
2023/05/15 02:14:27;;;;;;;40.00;28.90;;;11.80;99.90;;;;;;5043059;28;20041;-74
2023/05/15 02:16:52;;;;;;;39.28;26.17;;;11.80;99.90;;;;;;5054548;28;20440;-71
2023/05/15 02:19:18;;;;;;;36.20;25.98;;;11.90;99.90;;;;;;5045171;28;20045;-72
2023/05/15 02:21:43;;;;;;;37.17;26.05;;;12.00;99.90;;;;;;5054355;28;20132;-72
2023/05/15 02:24:09;;;;;;;36.05;25.63;;;11.90;99.90;;;;;;5045355;28;20041;-72
2023/05/15 02:26:53;;;;;;;36.28;26.35;;;11.90;99.90;;;;;;5040109;28;20112;-72
2023/05/15 02:29:30;;;;;;;37.00;26.38;;;11.90;99.90;;;;;;5052497;28;20441;-72
2023/05/15 02:32:04;;;;;;;34.13;24.80;;;11.90;99.90;;;;;;5042819;28;20073;-72
2023/05/15 02:35:16;;;;;;;35.97;25.58;;;11.90;99.90;;;;;;5065714;28;20083;-72
2023/05/15 02:37:49;;;;;;;33.97;23.73;;;11.90;99.90;;;;;;5006105;28;20049;-71
2023/05/15 02:40:16;;;;;;;36.35;24.75;;;11.90;99.90;;;;;;5050388;28;20452;-71
2023/05/15 02:42:44;;;;;;;33.42;24.58;;;11.90;99.90;;;;;;5053917;28;20045;-71
2023/05/15 02:45:11;;;;;;;32.80;24.60;;;11.90;99.90;;;;;;5049838;28;20083;-72
2023/05/15 02:47:38;;;;;;;34.38;24.85;;;11.90;99.90;;;;;;5053992;28;20041;-71
2023/05/15 02:50:05;;;;;;;34.67;25.08;;;11.90;99.90;;;;;;5053182;28;20127;-72
2023/05/15 02:52:33;;;;;;;32.15;22.85;;;11.90;99.90;;;;;;5039846;28;20060;-71
2023/05/15 02:54:58;;;;;;;34.22;26.13;;;11.90;99.90;;;;;;5034564;28;20128;-71
2023/05/15 02:57:24;;;;;;;31.65;22.95;;;11.80;99.90;;;;;;5042085;28;20132;-71
2023/05/15 02:59:51;;;;;;;33.85;24.42;;;11.80;99.90;;;;;;5053187;28;20025;-71
2023/05/15 03:02:17;;;;;;;37.42;26.08;;;11.80;99.90;;;;;;5050201;28;20206;-71
2023/05/15 03:04:42;;;;;;;34.38;24.65;;;11.80;99.90;;;;;;5048479;28;20041;-71
2023/05/15 03:07:08;;;;;;;31.88;22.88;;;11.70;99.90;;;;;;5054729;28;20485;-71
2023/05/15 03:09:33;;;;;;;30.33;22.08;;;11.60;99.90;;;;;;5053578;28;20513;-71
2023/05/15 03:11:59;;;;;;;30.80;22.55;;;11.60;99.90;;;;;;5052375;28;20044;-72
2023/05/15 03:14:24;;;;;;;29.75;21.75;;;11.60;99.90;;;;;;5052561;28;20035;-71
2023/05/15 03:16:50;;;;;;;31.20;22.42;;;11.70;99.90;;;;;;5052107;28;20071;-72
2023/05/15 03:19:16;;;;;;;31.30;21.08;;;11.70;99.90;;;;;;5048210;28;20032;-71
2023/05/15 03:21:41;;;;;;;28.52;21.73;;;11.80;99.90;;;;;;5042595;28;20041;-72
2023/05/15 03:24:07;;;;;;;32.25;22.67;;;11.70;99.90;;;;;;5048930;28;20040;-72
2023/05/15 03:26:32;;;;;;;29.95;21.77;;;11.60;99.90;;;;;;5051649;28;20092;-71
2023/05/15 03:29:00;;;;;;;29.48;20.27;;;11.50;99.90;;;;;;5042968;28;20120;-72
2023/05/15 03:31:25;;;;;;;27.02;20.67;;;11.50;99.90;;;;;;5039400;28;20045;-72
2023/05/15 03:33:51;;;;;;;32.65;22.05;;;11.40;99.90;;;;;;5047394;28;20041;-72
2023/05/15 03:36:16;;;;;;;28.90;21.25;;;11.40;99.90;;;;;;5048961;28;20051;-72
2023/05/15 03:38:43;;;;;;;29.23;22.73;;;11.30;99.90;;;;;;5041954;28;20041;-72
2023/05/15 03:41:09;;;;;;;30.67;23.25;;;11.30;99.90;;;;;;5033575;28;20042;-72
2023/05/15 03:43:35;;;;;;;30.17;22.88;;;11.40;99.90;;;;;;5041757;28;20064;-71
2023/05/15 03:46:00;;;;;;;29.52;21.33;;;11.40;99.90;;;;;;5053767;28;20122;-72
2023/05/15 03:48:26;;;;;;;31.05;22.05;;;11.30;99.90;;;;;;5044049;28;20046;-72
2023/05/15 03:50:52;;;;;;;28.65;21.00;;;11.40;99.90;;;;;;5048519;28;20037;-72
2023/05/15 03:53:17;;;;;;;28.83;21.08;;;11.40;99.90;;;;;;5044509;28;20061;-72
2023/05/15 03:55:43;;;;;;;27.83;21.58;;;11.40;99.90;;;;;;5046446;28;20041;-71
2023/05/15 03:58:08;;;;;;;33.00;22.92;;;11.30;99.90;;;;;;5034765;28;20041;-71
2023/05/15 04:00:34;;;;;;;32.15;22.90;;;11.40;99.90;;;;;;5044591;28;20045;-72
2023/05/15 04:03:00;;;;;;;33.40;22.33;;;11.30;99.90;;;;;;5031886;28;20135;-71
2023/05/15 04:05:26;;;;;;;32.47;22.05;;;11.30;99.90;;;;;;5048652;28;20041;-71
2023/05/15 04:07:51;;;;;;;34.50;23.67;;;11.20;99.90;;;;;;5039629;28;20042;-71
2023/05/15 04:10:18;;;;;;;33.92;22.67;;;11.20;99.90;;;;;;5031532;28;20050;-72
2023/05/15 04:12:44;;;;;;;34.15;22.83;;;11.10;99.90;;;;;;5037514;28;20466;-72
2023/05/15 04:15:18;;;;;;;34.55;23.38;;;10.90;99.90;;;;;;5045903;28;20068;-72
2023/05/15 04:17:49;;;;;;;32.75;21.77;;;10.90;99.90;;;;;;5056930;28;20051;-72
2023/05/15 04:20:16;;;;;;;34.15;23.50;;;10.90;99.90;;;;;;5052352;28;20049;-72
2023/05/15 04:22:43;;;;;;;34.40;22.85;;;10.90;99.90;;;;;;5052087;28;20041;-72
2023/05/15 04:25:10;;;;;;;32.35;21.80;;;10.80;99.90;;;;;;5052015;28;20045;-73
2023/05/15 04:27:36;;;;;;;32.55;22.20;;;10.90;99.90;;;;;;5055883;28;20402;-71
2023/05/15 04:30:04;;;;;;;34.40;23.63;;;10.80;99.90;;;;;;5033478;28;20453;-71
2023/05/15 04:32:30;;;;;;;35.35;22.92;;;10.80;99.90;;;;;;5038937;28;20045;-72
2023/05/15 04:34:55;;;;;;;35.45;22.98;;;10.80;99.90;;;;;;5033303;28;20067;-72
2023/05/15 04:37:21;;;;;;;35.67;23.08;;;10.80;99.90;;;;;;5034928;28;20508;-71
2023/05/15 04:39:47;;;;;;;31.58;22.27;;;10.80;99.90;;;;;;5053093;28;20041;-71
2023/05/15 04:42:12;;;;;;;35.22;23.65;;;10.80;99.90;;;;;;5051908;28;20041;-71
2023/05/15 04:44:38;;;;;;;34.35;23.00;;;10.80;99.90;;;;;;5053487;28;20094;-71
2023/05/15 04:47:04;;;;;;;30.90;20.90;;;10.80;99.90;;;;;;5052325;28;20044;-71
2023/05/15 04:49:29;;;;;;;29.25;20.25;;;10.70;99.90;;;;;;5053085;28;20544;-71
2023/05/15 04:51:55;;;;;;;28.67;19.52;;;10.60;99.90;;;;;;5051680;28;20060;-72
2023/05/15 04:54:20;;;;;;;30.02;20.70;;;10.60;99.90;;;;;;5051671;28;20052;-72
2023/05/15 04:56:46;;;;;;;29.25;19.58;;;10.70;99.90;;;;;;5051897;28;20055;-72
2023/05/15 04:59:12;;;;;;;26.52;18.67;;;10.60;99.90;;;;;;5054089;28;20037;-72
2023/05/15 05:01:38;;;;;;;28.60;18.65;;;10.70;99.90;;;;;;5047211;28;20045;-71
2023/05/15 05:04:04;;;;;;;28.38;18.70;;;10.70;99.90;;;;;;5044875;28;20065;-71
2023/05/15 05:06:29;;;;;;;26.90;19.50;;;10.80;99.90;;;;;;5019465;28;20140;-72
2023/05/15 05:08:55;;;;;;;27.15;19.30;;;10.80;99.90;;;;;;5040593;28;20048;-71
2023/05/15 05:11:20;;;;;;;27.35;18.27;;;10.80;99.90;;;;;;5038224;28;20084;-71
2023/05/15 05:13:48;;;;;;;25.75;18.10;;;10.80;99.90;;;;;;5047405;28;20107;-71
2023/05/15 05:16:13;;;;;;;24.55;17.75;;;10.90;99.90;;;;;;5056513;28;20045;-72
2023/05/15 05:18:39;;;;;;;25.30;18.88;;;10.90;99.90;;;;;;5042403;28;20478;-72
2023/05/15 05:21:04;;;;;;;26.02;18.13;;;10.90;99.90;;;;;;5055551;28;20461;-71
2023/05/15 05:23:30;;;;;;;26.10;19.17;;;10.90;99.90;;;;;;5044981;28;20033;-71
2023/05/15 05:25:56;;;;;;;24.88;17.63;;;10.80;99.90;;;;;;5046122;28;20049;-71
2023/05/15 05:28:22;;;;;;;24.80;18.23;;;10.80;99.90;;;;;;5037028;28;20041;-71
2023/05/15 05:30:48;;;;;;;26.75;18.83;;;10.90;99.90;;;;;;5047076;28;20044;-71
2023/05/15 05:33:14;;;;;;;27.67;18.75;;;10.90;99.90;;;;;;5040847;28;20045;-71
2023/05/15 05:35:39;;;;;;;24.73;18.40;;;11.00;99.90;;;;;;5044581;28;20072;-71
2023/05/15 05:38:05;;;;;;;24.73;18.35;;;11.00;99.90;;;;;;5048416;28;20060;-71
2023/05/15 05:40:31;;;;;;;25.13;19.05;;;11.10;99.90;;;;;;5050944;28;20033;-71
2023/05/15 05:43:01;;;;;;;25.75;18.92;;;11.20;99.90;;;;;;5045293;28;20038;-71
2023/05/15 05:45:27;;;;;;;25.23;18.15;;;11.20;99.90;;;;;;5053824;28;20052;-71
2023/05/15 05:47:54;;;;;;;24.95;18.52;;;11.30;99.90;;;;;;5048000;28;20397;-71
2023/05/15 05:50:19;;;;;;;23.92;17.92;;;11.40;99.90;;;;;;5039744;28;20555;-71
2023/05/15 05:52:45;;;;;;;22.98;18.50;;;11.50;99.90;;;;;;5046823;28;20083;-72
2023/05/15 05:55:10;;;;;;;25.58;18.77;;;11.60;99.90;;;;;;5044164;28;20090;-71
2023/05/15 05:57:36;;;;;;;22.15;17.90;;;11.60;99.90;;;;;;5046836;28;20034;-71
2023/05/15 06:00:04;;;;;;;23.48;18.45;;;11.60;99.90;;;;;;5052311;28;20486;-72
2023/05/15 06:02:30;;;;;;;22.80;18.38;;;11.60;99.90;;;;;;5050046;28;20045;-71
2023/05/15 06:04:55;;;;;;;22.38;17.27;;;11.60;99.90;;;;;;5032794;28;20478;-71
2023/05/15 06:07:21;;;;;;;23.50;18.02;;;11.60;99.90;;;;;;5037684;28;20449;-72
2023/05/15 06:09:47;;;;;;;22.58;17.40;;;11.70;99.90;;;;;;5028183;28;20045;-71
2023/05/15 06:12:13;;;;;;;22.75;18.08;;;11.70;99.90;;;;;;5045180;28;20078;-71
2023/05/15 06:14:38;;;;;;;23.35;17.40;;;11.80;99.90;;;;;;5051649;28;20033;-72
2023/05/15 06:17:04;;;;;;;22.05;17.38;;;11.80;99.90;;;;;;5042597;28;20042;-71
2023/05/15 06:19:30;;;;;;;24.30;18.67;;;11.80;99.90;;;;;;5048684;28;20527;-71
2023/05/15 06:21:56;;;;;;;23.23;18.58;;;11.90;99.90;;;;;;5048233;28;20037;-71
2023/05/15 06:24:21;;;;;;;23.05;17.65;;;12.00;99.90;;;;;;5038385;28;20037;-71
2023/05/15 06:26:47;;;;;;;20.23;16.40;;;12.10;99.90;;;;;;5049906;28;20036;-71
2023/05/15 06:29:12;;;;;;;21.95;17.67;;;12.30;99.90;;;;;;5042699;28;20138;-71
2023/05/15 06:31:38;;;;;;;24.65;17.77;;;12.40;99.90;;;;;;5046337;28;20110;-71
2023/05/15 06:34:03;;;;;;;22.70;18.02;;;12.60;99.90;;;;;;5052005;28;20120;-71
2023/05/15 06:36:29;;;;;;;20.80;16.85;;;12.60;99.90;;;;;;5050147;28;20382;-71
2023/05/15 06:38:54;;;;;;;23.33;17.02;;;12.70;99.90;;;;;;5043795;28;20033;-71
2023/05/15 06:41:20;;;;;;;22.30;18.02;;;12.80;99.90;;;;;;5046407;28;20060;-72
2023/05/15 06:43:46;;;;;;;20.20;15.82;;;12.80;99.90;;;;;;5051465;28;20040;-73
2023/05/15 06:46:14;;;;;;;20.45;17.20;;;12.90;99.90;;;;;;5038733;28;20095;-75
2023/05/15 06:48:40;;;;;;;21.50;15.88;;;13.00;99.90;;;;;;5034075;28;20045;-76
2023/05/15 06:51:06;;;;;;;21.45;16.50;;;13.00;99.90;;;;;;5014679;28;1142724;-73
2023/05/15 06:53:32;;;;;;;23.33;18.15;;;13.10;99.90;;;;;;5033563;28;20132;-75
2023/05/15 06:55:58;;;;;;;21.80;17.98;;;13.10;99.90;;;;;;5032107;28;20441;-75
2023/05/15 06:58:24;;;;;;;23.30;18.45;;;13.20;99.90;;;;;;5045801;28;20072;-76
2023/05/15 07:00:50;;;;;;;23.73;17.88;;;13.30;99.90;;;;;;5054277;28;20032;-74
2023/05/15 07:03:16;;;;;;;23.25;18.00;;;13.50;99.90;;;;;;5042604;28;20042;-73
2023/05/15 07:05:41;;;;;;;21.85;17.98;;;13.50;99.90;;;;;;5033739;28;20120;-73
2023/05/15 07:08:07;;;;;;;24.27;17.65;;;13.60;99.90;;;;;;5034339;28;20128;-73
2023/05/15 07:10:33;;;;;;;28.50;19.02;;;13.60;99.90;;;;;;5034827;28;20438;-73
2023/05/15 07:12:58;;;;;;;24.70;17.70;;;13.70;99.90;;;;;;5052141;28;20045;-73
2023/05/15 07:15:24;;;;;;;23.52;17.75;;;13.70;99.90;;;;;;5045766;28;20119;-73
2023/05/15 07:17:49;;;;;;;22.40;16.85;;;13.80;99.90;;;;;;5034607;28;20386;-73
2023/05/15 07:20:15;;;;;;;20.88;17.52;;;13.90;99.90;;;;;;5034519;28;20038;-73
2023/05/15 07:22:40;;;;;;;20.48;16.85;;;13.90;99.90;;;;;;5034210;28;20073;-73
2023/05/15 07:25:06;;;;;;;21.17;16.33;;;13.80;99.90;;;;;;5042315;28;20452;-73
2023/05/15 07:27:32;;;;;;;26.85;17.02;;;13.90;99.90;;;;;;5052738;28;20039;-74
2023/05/15 07:29:57;;;;;;;22.15;16.48;;;13.90;99.90;;;;;;5054165;28;20033;-75
2023/05/15 07:32:23;;;;;;;25.70;18.20;;;14.10;99.90;;;;;;5050913;28;20044;-74
2023/05/15 07:34:49;;;;;;;23.73;17.98;;;14.10;99.90;;;;;;5051420;28;20033;-74
2023/05/15 07:37:15;;;;;;;22.50;17.77;;;14.20;99.90;;;;;;5037479;28;20048;-74
2023/05/15 07:39:40;;;;;;;23.80;18.05;;;14.20;99.90;;;;;;5051237;28;20044;-74
2023/05/15 07:42:06;;;;;;;20.98;15.55;;;14.30;99.90;;;;;;5050263;28;20094;-74
2023/05/15 07:44:31;;;;;;;20.08;14.73;;;14.30;99.90;;;;;;5053991;28;20041;-74
2023/05/15 07:46:58;;;;;;;19.52;14.88;;;14.30;99.90;;;;;;5042188;28;20150;-74
2023/05/15 07:49:23;;;;;;;19.15;14.60;;;14.20;99.90;;;;;;5032824;28;20482;-74
2023/05/15 07:51:49;;;;;;;21.08;16.20;;;14.20;99.90;;;;;;5036273;28;20099;-74
2023/05/15 07:54:15;;;;;;;20.23;15.65;;;14.30;99.90;;;;;;5040815;28;20129;-74
2023/05/15 07:56:41;;;;;;;19.13;15.40;;;14.30;99.90;;;;;;5033224;28;20080;-74
2023/05/15 07:59:06;;;;;;;19.30;14.32;;;14.40;99.90;;;;;;5039964;28;20047;-74
2023/05/15 08:01:32;;;;;;;20.20;14.07;;;14.40;99.90;;;;;;5050058;28;20057;-74
2023/05/15 08:03:58;;;;;;;19.50;14.68;;;14.40;99.90;;;;;;5049097;28;20029;-74
2023/05/15 08:06:23;;;;;;;18.38;13.45;;;14.40;99.90;;;;;;5047263;28;20087;-74
2023/05/15 08:08:49;;;;;;;17.50;14.05;;;14.60;99.90;;;;;;5040847;28;20040;-74
2023/05/15 08:11:15;;;;;;;18.05;13.80;;;14.70;99.90;;;;;;5051124;28;20045;-74
2023/05/15 08:13:40;;;;;;;16.55;12.98;;;14.70;99.90;;;;;;5046113;28;20127;-74
2023/05/15 08:16:06;;;;;;;16.38;11.88;;;14.70;99.90;;;;;;5034714;28;20128;-74
2023/05/15 08:18:31;;;;;;;18.83;13.75;;;14.80;99.90;;;;;;5037423;28;20037;-74
2023/05/15 08:20:57;;;;;;;18.38;13.13;;;14.80;99.90;;;;;;5032577;28;20045;-74
2023/05/15 08:23:22;;;;;;;16.65;12.93;;;14.90;99.90;;;;;;5046691;28;20045;-74
2023/05/15 08:25:48;;;;;;;16.85;12.60;;;14.90;99.90;;;;;;5045024;28;20060;-74
2023/05/15 08:28:14;;;;;;;15.52;12.35;;;15.00;99.90;;;;;;5039347;28;20409;-74
2023/05/15 08:30:39;;;;;;;17.45;12.25;;;15.10;99.90;;;;;;5052671;28;20132;-74
2023/05/15 08:33:05;;;;;;;16.83;11.70;;;15.20;99.90;;;;;;5051521;28;20032;-74
2023/05/15 08:35:31;;;;;;;14.80;10.95;;;15.20;99.90;;;;;;5038529;28;20086;-74
2023/05/15 08:37:57;;;;;;;13.73;10.68;;;15.20;99.90;;;;;;5052468;28;20041;-75
2023/05/15 08:40:23;;;;;;;15.75;11.20;;;15.40;99.90;;;;;;5049831;28;20393;-73
2023/05/15 08:42:53;;;;;;;14.80;11.20;;;15.50;99.90;;;;;;5041597;28;20040;-73
2023/05/15 08:45:20;;;;;;;16.00;11.95;;;15.50;99.90;;;;;;5042908;28;20075;-73
2023/05/15 08:47:46;;;;;;;14.85;10.77;;;15.60;99.90;;;;;;5036068;28;20482;-75
2023/05/15 08:50:14;;;;;;;13.07;10.52;;;15.60;99.90;;;;;;5042812;28;20493;-77
2023/05/15 08:52:46;;;;;;;15.98;10.23;;;15.70;99.90;;;;;;5036534;28;20057;-78
2023/05/15 08:55:13;;;;;;;17.48;10.38;;;15.90;99.90;;;;;;5049528;28;20122;-77
2023/05/15 08:57:40;;;;;;;15.50;11.55;;;15.90;99.90;;;;;;5038578;28;20037;-77
2023/05/15 09:00:07;;;;;;;14.25;10.93;;;16.10;99.90;;;;;;5040502;28;20116;-77
2023/05/15 09:02:35;;;;;;;13.60;10.18;;;16.10;99.90;;;;;;5039408;28;20037;-77
2023/05/15 09:05:01;;;;;;;13.95;10.38;;;16.20;99.90;;;;;;5052566;28;20151;-78
2023/05/15 09:07:29;;;;;;;14.30;10.13;;;16.10;99.90;;;;;;5036608;28;20043;-77
2023/05/15 09:09:56;;;;;;;17.27;10.65;;;16.30;99.90;;;;;;5050373;28;20052;-77
2023/05/15 09:12:24;;;;;;;15.35;10.63;;;16.40;99.90;;;;;;5048868;28;20433;-74
2023/05/15 09:14:49;;;;;;;13.93;10.35;;;16.50;99.90;;;;;;5038961;28;20532;-74
2023/05/15 09:17:15;;;;;;;17.88;10.73;;;16.30;99.90;;;;;;5049101;28;20038;-74
2023/05/15 09:19:41;;;;;;;15.20;9.43;;;16.40;99.90;;;;;;5032971;28;20037;-74
2023/05/15 09:22:22;;;;;;;12.52;8.98;;;16.40;99.90;;;;;;5049328;28;20443;-74
2023/05/15 09:24:50;;;;;;;13.63;10.02;;;16.40;99.90;;;;;;5051885;28;20044;-74
2023/05/15 09:27:16;;;;;;;15.10;9.75;;;16.50;99.90;;;;;;5034750;28;20379;-74
2023/05/15 09:29:41;;;;;;;12.98;9.65;;;16.60;99.90;;;;;;5032545;28;20047;-74
2023/05/15 09:32:12;;;;;;;13.48;8.52;;;16.70;99.90;;;;;;5042210;28;20044;-74
2023/05/15 09:34:41;;;;;;;12.52;9.15;;;16.90;99.90;;;;;;5039022;28;20050;-74
2023/05/15 09:37:08;;;;;;;15.50;8.88;;;16.90;99.90;;;;;;5032229;28;20057;-74
2023/05/15 09:39:41;;;;;;;13.98;9.50;;;16.90;99.90;;;;;;5032403;28;20077;-74
2023/05/15 09:42:09;;;;;;;13.25;9.60;;;17.00;99.90;;;;;;5044429;28;20042;-74
2023/05/15 09:44:39;;;;;;;13.70;9.45;;;17.00;99.90;;;;;;5044366;28;20032;-74
2023/05/15 09:47:05;;;;;;;13.80;10.35;;;17.00;99.90;;;;;;5049857;28;20056;-74
2023/05/15 09:49:31;;;;;;;11.63;9.35;;;17.00;99.90;;;;;;5059164;28;20036;-73
2023/05/15 09:51:58;;;;;;;12.93;9.18;;;16.90;99.90;;;;;;5055645;28;20486;-74
2023/05/15 09:54:26;;;;;;;9.57;7.72;;;17.00;99.90;;;;;;5053161;28;20060;-73
2023/05/15 09:56:52;;;;;;;11.88;7.82;;;17.00;99.90;;;;;;5050108;28;20456;-73
2023/05/15 09:59:22;;;;;;;11.88;9.20;;;17.10;99.90;;;;;;5048496;28;20119;-74
2023/05/15 10:01:50;;;;;;;13.20;8.45;;;17.20;99.90;;;;;;5051403;28;20077;-74
2023/05/15 10:04:16;;;;;;;12.15;8.90;;;17.20;99.90;;;;;;5053991;28;20041;-73
2023/05/15 10:06:46;;;;;;;13.90;9.55;;;17.20;99.90;;;;;;5035227;28;20034;-73
2023/05/15 10:09:15;;;;;;;15.52;12.05;;;17.40;99.90;;;;;;5034962;28;20045;-73
2023/05/15 10:11:43;;;;;;;12.93;9.82;;;17.40;99.90;;;;;;5035793;28;20085;-77
2023/05/15 10:14:10;;;;;;;14.43;10.18;;;17.50;99.90;;;;;;5067089;28;20048;-76
2023/05/15 10:16:37;;;;;;;13.75;9.85;;;17.60;99.90;;;;;;5048252;28;20033;-77
2023/05/15 10:19:08;;;;;;;16.98;10.07;;;17.60;99.90;;;;;;5035042;28;20041;-77
2023/05/15 10:21:35;;;;;;;13.27;9.35;;;17.80;99.90;;;;;;5036612;28;20090;-77
2023/05/15 10:24:03;;;;;;;13.10;9.43;;;17.80;99.90;;;;;;5035823;28;20033;-77
2023/05/15 10:26:35;;;;;;;12.02;8.43;;;17.80;99.90;;;;;;5054552;28;20045;-74
2023/05/15 10:29:03;;;;;;;12.52;8.43;;;17.80;99.90;;;;;;5070309;28;20045;-74
2023/05/15 10:31:30;;;;;;;11.70;7.22;;;17.90;99.90;;;;;;5035258;28;20120;-74
2023/05/15 10:33:55;;;;;;;11.77;8.75;;;18.00;99.90;;;;;;5041392;28;20520;-74
2023/05/15 10:36:22;;;;;;;11.52;8.82;;;17.90;99.90;;;;;;5053945;28;20064;-74
2023/05/15 10:38:49;;;;;;;12.02;8.93;;;18.00;99.90;;;;;;5054364;28;20033;-74
2023/05/15 10:41:19;;;;;;;13.02;9.30;;;18.10;99.90;;;;;;5051928;28;20045;-74
2023/05/15 10:43:46;;;;;;;13.60;9.68;;;18.10;99.90;;;;;;5032237;28;20090;-74
2023/05/15 10:46:12;;;;;;;14.23;10.50;;;18.20;99.90;;;;;;5067180;28;20040;-74
2023/05/15 10:48:39;;;;;;;12.10;9.50;;;18.20;99.90;;;;;;5053044;28;20382;-74
2023/05/15 10:51:12;;;;;;;11.82;9.52;;;18.10;99.90;;;;;;5031119;28;20045;-74
2023/05/15 10:53:37;;;;;;;13.52;9.88;;;18.10;99.90;;;;;;5049298;28;20048;-73
2023/05/15 10:56:03;;;;;;;14.02;9.57;;;18.00;99.90;;;;;;5053896;28;20430;-74
2023/05/15 10:58:30;;;;;;;13.82;10.80;;;18.00;99.90;;;;;;5033896;28;20094;-74
2023/05/15 11:00:55;;;;;;;13.35;9.65;;;17.80;99.90;;;;;;5047482;28;20067;-73
2023/05/15 11:03:37;;;;;;;12.25;10.07;;;17.80;99.90;;;;;;5038670;28;20474;-73
2023/05/15 11:06:11;;;;;;;13.93;9.75;;;17.70;99.90;;;;;;5046531;28;20044;-73
2023/05/15 11:08:41;;;;;;;14.02;9.00;;;17.60;99.90;;;;;;5033363;28;20041;-74
2023/05/15 11:11:07;;;;;;;13.27;9.23;;;17.60;99.90;;;;;;5036982;28;20047;-73
2023/05/15 11:14:06;;;;;;;13.20;8.52;;;17.50;99.90;;;;;;5048795;28;20045;-73
2023/05/15 11:16:54;;;;;;;12.55;9.25;;;17.70;99.90;;;;;;5033028;28;20387;-74
2023/05/15 11:19:35;;;;;;;11.63;8.30;;;17.60;99.90;;;;;;5032360;28;20033;-73
2023/05/15 11:22:17;;;;;;;13.77;9.27;;;17.70;99.90;;;;;;5035242;28;20517;-73
2023/05/15 11:24:57;;;;;;;13.32;9.23;;;17.70;99.90;;;;;;5042189;28;20086;-74
2023/05/15 11:27:25;;;;;;;16.08;9.73;;;17.80;99.90;;;;;;5066229;28;20064;-73
2023/05/15 11:30:12;;;;;;;11.95;10.13;;;17.70;99.90;;;;;;5043164;28;20056;-74
2023/05/15 11:32:41;;;;;;;12.38;8.88;;;17.70;99.90;;;;;;5037514;28;20041;-74
2023/05/15 11:35:11;;;;;;;13.75;10.25;;;17.80;99.90;;;;;;5035982;28;20078;-73
2023/05/15 11:38:09;;;;;;;12.35;10.07;;;17.70;99.90;;;;;;5043476;28;20072;-74
2023/05/15 11:40:52;;;;;;;12.32;8.60;;;17.70;99.90;;;;;;5049589;28;20036;-73
2023/05/15 11:43:26;;;;;;;;;;;17.80;99.90;;;;;;5044939;28;20100;-74
2023/05/15 11:45:54;;;;;;;11.25;8.15;;;17.70;99.90;;;;;;5041007;28;19917;-74
2023/05/15 11:48:22;;;;;;;10.15;7.82;;;17.70;99.90;;;;;;5043173;28;20032;-74
2023/05/15 11:50:48;;;;;;;13.45;9.35;;;17.90;99.90;;;;;;5035283;28;20042;-74
2023/05/15 11:53:14;;;;;;;13.15;9.27;;;17.90;99.90;;;;;;5032936;28;20057;-74
2023/05/15 11:55:42;;;;;;;12.63;9.05;;;17.90;99.90;;;;;;5032188;28;20045;-73
2023/05/15 11:58:16;;;;;;;11.13;8.52;;;17.90;99.90;;;;;;5043653;28;20051;-74
2023/05/15 12:00:45;;;;;;;12.95;9.13;;;18.00;99.90;;;;;;5041167;28;20116;-74
2023/05/15 12:03:17;;;;;;;11.27;8.13;;;18.00;99.90;;;;;;5032527;28;20055;-74
2023/05/15 12:05:43;;;;;;;10.48;7.55;;;18.00;99.90;;;;;;5040415;28;20077;-73
2023/05/15 12:08:10;;;;;;;10.98;7.80;;;18.00;99.90;;;;;;5044664;28;21358;-73
2023/05/15 12:10:43;;;;;;;11.40;8.25;;;18.00;99.90;;;;;;5048835;28;20676;-73
2023/05/15 12:13:13;;;;;;;12.73;8.65;;;17.90;99.90;;;;;;5047330;28;20040;-73
2023/05/15 12:15:44;;;;;;;11.90;8.70;;;17.90;99.90;;;;;;5041241;28;20433;-73
2023/05/15 12:18:10;;;;;;;11.03;8.37;;;17.80;99.90;;;;;;5034505;28;20123;-74
2023/05/15 12:20:38;;;;;;;10.38;8.68;;;17.80;99.90;;;;;;5039587;28;20039;-73
2023/05/15 12:23:05;;;;;;;11.88;7.60;;;17.70;99.90;;;;;;5050103;28;20075;-73
2023/05/15 12:25:35;;;;;;;13.05;8.23;;;17.70;99.90;;;;;;5037544;28;20046;-74
2023/05/15 12:28:03;;;;;;;11.52;8.77;;;17.70;99.90;;;;;;5042114;28;20037;-74
2023/05/15 12:30:33;;;;;;;13.25;9.40;;;17.80;99.90;;;;;;5030456;28;20069;-73
2023/05/15 12:33:03;;;;;;;13.57;9.40;;;17.60;99.90;;;;;;5037303;28;20067;-73